createdAt,value
2023-03-26T00:00:13.029Z,98948.81
2023-03-26T00:02:42.257Z,98955.66
2023-03-26T00:05:14.228Z,98957.37
2023-03-26T00:07:43.969Z,98954.09
2023-03-26T00:10:15.111Z,98955.27
2023-03-26T00:12:43.982Z,98954.30
2023-03-26T00:15:13.677Z,98950.02
2023-03-26T00:17:46.254Z,98949.37
2023-03-26T00:20:15.483Z,98949.70
2023-03-26T00:22:45.292Z,98953.20
2023-03-26T00:25:14.250Z,98947.65
2023-03-26T00:27:45.152Z,98948.23
2023-03-26T00:30:15.110Z,98944.41
2023-03-26T00:32:44.146Z,98941.66
2023-03-26T00:35:23.574Z,98940.27
2023-03-26T00:37:53.067Z,98945.27
2023-03-26T00:40:23.289Z,98942.44
2023-03-26T00:42:52.091Z,98936.11
2023-03-26T00:45:21.936Z,98929.77
2023-03-26T00:47:51.269Z,98927.17
2023-03-26T00:50:20.278Z,98930.67
2023-03-26T00:52:49.056Z,98931.88
2023-03-26T00:55:18.143Z,98932.23
2023-03-26T00:57:46.965Z,98931.94
2023-03-26T01:00:19.055Z,98928.35
2023-03-26T01:02:48.229Z,98923.19
2023-03-26T01:05:52.826Z,98920.22
2023-03-26T01:08:28.623Z,98922.77
2023-03-26T01:11:03.008Z,98920.44
2023-03-26T01:13:34.156Z,98916.73
2023-03-26T01:16:03.905Z,98918.73
2023-03-26T01:18:40.469Z,98916.79
2023-03-26T01:21:13.606Z,98910.72
2023-03-26T01:23:48.526Z,98909.21
2023-03-26T01:26:47.533Z,98904.83
2023-03-26T01:29:21.977Z,98899.91
2023-03-26T01:32:01.152Z,98894.64
2023-03-26T01:34:41.502Z,98895.50
2023-03-26T01:37:20.547Z,98898.02
2023-03-26T01:39:56.742Z,98892.38
2023-03-26T01:42:34.273Z,98893.73
2023-03-26T01:45:10.667Z,98890.56
2023-03-26T01:47:42.481Z,98888.71
2023-03-26T01:50:12.145Z,98886.12
2023-03-26T01:52:40.976Z,98885.20
2023-03-26T01:55:11.432Z,98885.61
2023-03-26T01:57:53.439Z,98881.05
2023-03-26T02:00:29.843Z,98877.89
2023-03-26T02:03:17.497Z,98875.90
2023-03-26T02:05:53.960Z,98871.86
2023-03-26T02:08:31.240Z,98866.77
2023-03-26T02:11:04.006Z,98864.67
2023-03-26T02:13:33.522Z,98861.48
2023-03-26T02:16:05.035Z,98855.42
2023-03-26T02:18:36.806Z,98860.22
2023-03-26T02:21:10.602Z,98861.63
2023-03-26T02:23:42.326Z,98862.91
2023-03-26T02:26:11.964Z,98860.99
2023-03-26T02:28:41.233Z,98859.92
2023-03-26T02:31:10.731Z,98857.60
2023-03-26T02:33:39.828Z,98860.70
2023-03-26T02:36:10.371Z,98858.86
2023-03-26T02:38:39.934Z,98855.11
2023-03-26T02:41:08.988Z,98851.29
2023-03-26T02:43:37.772Z,98853.04
2023-03-26T02:46:07.051Z,98852.45
2023-03-26T02:48:36.345Z,98851.48
2023-03-26T02:51:06.373Z,98853.61
2023-03-26T02:53:37.005Z,98852.77
2023-03-26T02:56:07.764Z,98854.07
2023-03-26T02:58:36.607Z,98850.08
2023-03-26T03:01:06.220Z,98852.70
2023-03-26T03:03:35.994Z,98853.15
2023-03-26T03:06:05.501Z,98855.79
2023-03-26T03:08:34.272Z,98853.73
2023-03-26T03:11:07.391Z,98851.70
2023-03-26T03:13:36.313Z,98848.86
2023-03-26T03:16:06.463Z,98851.59
2023-03-26T03:18:35.523Z,98844.91
2023-03-26T03:21:05.345Z,98847.90
2023-03-26T03:23:34.380Z,98846.32
2023-03-26T03:26:03.362Z,98851.61
2023-03-26T03:28:32.099Z,98851.29
2023-03-26T03:31:20.480Z,98851.73
2023-03-26T03:34:01.386Z,98851.09
2023-03-26T03:36:52.993Z,98851.45
2023-03-26T03:39:22.216Z,98850.39
2023-03-26T03:41:51.110Z,98847.05
2023-03-26T03:44:20.148Z,98847.48
2023-03-26T03:46:53.584Z,98849.80
2023-03-26T03:49:22.506Z,98849.21
2023-03-26T03:51:51.333Z,98854.64
2023-03-26T03:54:20.247Z,98855.19
2023-03-26T03:56:49.163Z,98853.11
2023-03-26T03:59:18.042Z,98856.05
2023-03-26T04:01:48.072Z,98852.19
2023-03-26T04:04:16.989Z,98853.94
2023-03-26T04:06:45.860Z,98852.17
2023-03-26T04:09:14.601Z,98856.15
2023-03-26T04:11:43.322Z,98853.17
2023-03-26T04:14:12.055Z,98854.22
2023-03-26T04:16:40.780Z,98852.23
2023-03-26T04:19:10.045Z,98849.38
2023-03-26T04:21:38.907Z,98848.05
2023-03-26T04:24:08.505Z,98838.41
2023-03-26T04:26:37.478Z,98846.70
2023-03-26T04:29:11.668Z,98843.08
2023-03-26T04:31:42.660Z,98842.17
2023-03-26T04:34:20.389Z,98835.92
2023-03-26T04:36:49.264Z,98830.70
2023-03-26T04:39:18.642Z,98831.06
2023-03-26T04:41:47.618Z,98830.44
2023-03-26T04:44:16.791Z,98826.62
2023-03-26T04:46:45.708Z,98829.48
2023-03-26T04:49:15.145Z,98828.95
2023-03-26T04:51:45.970Z,98827.10
2023-03-26T04:54:16.700Z,98828.38
2023-03-26T04:56:50.781Z,98827.45
2023-03-26T04:59:25.731Z,98830.56
2023-03-26T05:01:54.988Z,98830.58
2023-03-26T05:04:24.268Z,98837.73
2023-03-26T05:06:53.167Z,98838.56
2023-03-26T05:09:22.052Z,98848.95
2023-03-26T05:11:51.482Z,98838.63
2023-03-26T05:14:20.507Z,98841.11
2023-03-26T05:16:50.721Z,98836.94
2023-03-26T05:19:19.552Z,98840.13
2023-03-26T05:21:48.447Z,98840.59
2023-03-26T05:24:19.228Z,98842.02
2023-03-26T05:26:48.094Z,98844.68
2023-03-26T05:29:20.360Z,98840.12
2023-03-26T05:31:49.279Z,98835.02
2023-03-26T05:34:18.095Z,98837.23
2023-03-26T05:36:48.175Z,98837.07
2023-03-26T05:39:16.947Z,98830.75
2023-03-26T05:41:45.803Z,98830.47
2023-03-26T05:44:14.604Z,98830.48
2023-03-26T05:46:43.421Z,98829.77
2023-03-26T05:49:12.272Z,98829.40
2023-03-26T05:51:41.186Z,98832.21
2023-03-26T05:54:10.076Z,98830.92
2023-03-26T05:56:39.052Z,98836.59
2023-03-26T05:59:07.774Z,98842.50
2023-03-26T06:01:36.565Z,98840.16
2023-03-26T06:04:05.692Z,98841.39
2023-03-26T06:06:34.432Z,98840.50
2023-03-26T06:09:04.601Z,98840.73
2023-03-26T06:11:34.404Z,98843.66
2023-03-26T06:14:03.412Z,98839.64
2023-03-26T06:16:32.465Z,98841.70
2023-03-26T06:19:01.468Z,98843.23
2023-03-26T06:21:31.002Z,98846.58
2023-03-26T06:24:00.285Z,98849.87
2023-03-26T06:26:29.269Z,98851.69
2023-03-26T06:28:58.162Z,98845.83
2023-03-26T06:31:27.102Z,98851.23
2023-03-26T06:33:56.024Z,98842.52
2023-03-26T06:36:24.856Z,98845.66
2023-03-26T06:38:53.795Z,98845.98
2023-03-26T06:41:22.848Z,98843.98
2023-03-26T06:43:52.452Z,98845.36
2023-03-26T06:46:23.119Z,98846.75
2023-03-26T06:48:52.067Z,98842.76
2023-03-26T06:51:21.061Z,98838.92
2023-03-26T06:53:49.980Z,98837.05
2023-03-26T06:56:19.059Z,98835.08
2023-03-26T06:58:47.990Z,98832.67
2023-03-26T07:01:17.268Z,98836.77
2023-03-26T07:03:46.190Z,98836.17
2023-03-26T07:06:15.030Z,98840.23
2023-03-26T07:08:43.965Z,98839.57
2023-03-26T07:11:12.894Z,98843.08
2023-03-26T07:13:41.753Z,98839.36
2023-03-26T07:16:11.323Z,98836.52
2023-03-26T07:18:40.457Z,98839.34
2023-03-26T07:21:12.877Z,98835.13
2023-03-26T07:23:42.787Z,98840.44
2023-03-26T07:26:27.036Z,98833.09
2023-03-26T07:29:05.477Z,98833.48
2023-03-26T07:31:44.933Z,98834.05
2023-03-26T07:34:32.284Z,98834.56
2023-03-26T07:37:10.796Z,98832.59
2023-03-26T07:39:51.961Z,98838.23
2023-03-26T07:42:48.596Z,98836.83
2023-03-26T07:45:24.997Z,98836.53
2023-03-26T07:47:56.753Z,98830.13
2023-03-26T07:50:26.822Z,98832.73
2023-03-26T07:52:57.274Z,98828.04
2023-03-26T07:55:28.036Z,98826.02
2023-03-26T07:58:15.034Z,98833.45
2023-03-26T08:00:48.923Z,98832.86
2023-03-26T08:03:39.090Z,98829.27
2023-03-26T08:06:16.037Z,98826.85
2023-03-26T08:08:52.962Z,98832.02
2023-03-26T08:11:35.144Z,98829.16
2023-03-26T08:14:21.315Z,98825.91
2023-03-26T08:16:58.284Z,98822.73
2023-03-26T08:19:42.875Z,98823.68
2023-03-26T08:22:17.347Z,98824.44
2023-03-26T08:25:02.538Z,98820.09
2023-03-26T08:27:38.250Z,98824.77
2023-03-26T08:30:14.850Z,98821.35
2023-03-26T08:32:53.456Z,98818.05
2023-03-26T08:35:22.581Z,98814.27
2023-03-26T08:37:52.014Z,98820.41
2023-03-26T08:40:36.111Z,98815.29
2023-03-26T08:43:29.094Z,98816.97
2023-03-26T08:46:26.834Z,98815.61
2023-03-26T08:49:29.744Z,98816.70
2023-03-26T08:52:28.742Z,98816.71
2023-03-26T08:55:28.014Z,98823.05
2023-03-26T08:58:46.244Z,98821.43
2023-03-26T09:01:49.649Z,98831.64
2023-03-26T09:05:02.746Z,98830.52
2023-03-26T09:08:11.209Z,98825.92
2023-03-26T09:11:02.890Z,98828.83
2023-03-26T09:14:08.146Z,98829.58
2023-03-26T09:17:15.540Z,98825.73
2023-03-26T09:20:11.168Z,98831.91
2023-03-26T09:23:18.088Z,98822.05
2023-03-26T09:26:09.689Z,98823.95
2023-03-26T09:29:13.006Z,98824.34
2023-03-26T09:32:19.073Z,98827.00
2023-03-26T09:35:12.593Z,98826.20
2023-03-26T09:37:58.016Z,98826.58
2023-03-26T09:40:37.404Z,98827.79
2023-03-26T09:43:28.357Z,98826.13
2023-03-26T09:46:13.429Z,98829.38
2023-03-26T09:48:53.893Z,98827.19
2023-03-26T09:51:46.630Z,98819.56
2023-03-26T09:54:44.069Z,98820.33
2023-03-26T09:57:24.021Z,98820.75
2023-03-26T10:00:10.069Z,98818.73
2023-03-26T10:02:59.025Z,98820.25
2023-03-26T10:05:59.374Z,98816.44
2023-03-26T10:08:48.882Z,98817.02
2023-03-26T10:11:32.817Z,98811.28
2023-03-26T10:14:09.803Z,98813.42
2023-03-26T10:16:56.221Z,98807.08
2023-03-26T10:19:45.899Z,98802.47
2023-03-26T10:22:28.220Z,98801.05
2023-03-26T10:25:17.074Z,98803.27
2023-03-26T10:27:57.406Z,98800.55
2023-03-26T10:30:49.107Z,98800.32
2023-03-26T10:33:30.917Z,98799.52
2023-03-26T10:36:21.280Z,98800.52
2023-03-26T10:39:36.360Z,98795.37
2023-03-26T10:42:15.966Z,98799.58
2023-03-26T10:45:08.603Z,98800.87
2023-03-26T10:47:51.737Z,98802.77
2023-03-26T10:50:37.065Z,98797.90
2023-03-26T10:53:12.901Z,98798.66
2023-03-26T10:55:46.237Z,98801.24
2023-03-26T10:58:23.705Z,98795.16
2023-03-26T11:01:00.187Z,98786.72
2023-03-26T11:03:43.942Z,98790.20
2023-03-26T11:06:25.234Z,98788.96
2023-03-26T11:09:02.135Z,98783.59
2023-03-26T11:11:41.647Z,98785.06
2023-03-26T11:14:31.806Z,98786.27
2023-03-26T11:17:14.860Z,98788.04
2023-03-26T11:20:07.822Z,98784.20
2023-03-26T11:22:44.404Z,98785.24
2023-03-26T11:25:47.874Z,98792.44
2023-03-26T11:28:40.478Z,98798.83
2023-03-26T11:31:20.024Z,98805.00
2023-03-26T11:33:54.141Z,98814.95
2023-03-26T11:36:29.313Z,98811.86
2023-03-26T11:39:02.343Z,98814.65
2023-03-26T11:41:32.382Z,98814.27
2023-03-26T11:44:05.064Z,98814.99
2023-03-26T11:46:39.362Z,98824.95
2023-03-26T11:49:13.076Z,98820.74
2023-03-26T11:51:44.669Z,98817.92
2023-03-26T11:54:16.322Z,98815.69
2023-03-26T11:57:05.595Z,98808.53
2023-03-26T11:59:53.078Z,98806.89
2023-03-26T12:02:33.689Z,98804.46
2023-03-26T12:05:15.511Z,98805.39
2023-03-26T12:08:02.582Z,98802.27
2023-03-26T12:10:37.288Z,98798.93
2023-03-26T12:13:17.130Z,98798.50
2023-03-26T12:15:46.175Z,98786.88
2023-03-26T12:18:27.352Z,98791.61
2023-03-26T12:21:08.512Z,98793.36
2023-03-26T12:23:53.656Z,98792.44
2023-03-26T12:26:33.818Z,98795.63
2023-03-26T12:29:10.207Z,98815.26
2023-03-26T12:31:55.833Z,98825.69
2023-03-26T12:34:30.292Z,98832.14
2023-03-26T12:37:00.727Z,98841.61
2023-03-26T12:40:09.177Z,98832.80
2023-03-26T12:44:50.126Z,98816.41
2023-03-26T12:45:23.809Z,98809.15
2023-03-26T12:48:04.052Z,98808.65
2023-03-26T12:50:54.411Z,98804.34
2023-03-26T12:53:38.212Z,98804.41
2023-03-26T12:56:22.118Z,98804.38
2023-03-26T12:59:15.385Z,98799.58
2023-03-26T13:01:55.010Z,98796.25
2023-03-26T13:05:05.671Z,98791.17
2023-03-26T13:07:53.138Z,98792.31
2023-03-26T13:10:49.287Z,98787.24
2023-03-26T13:13:52.414Z,98783.67
2023-03-26T13:16:33.483Z,98779.89
2023-03-26T13:19:10.453Z,98777.52
2023-03-26T13:21:56.499Z,98787.08
2023-03-26T13:24:38.947Z,98785.02
2023-03-26T13:27:18.656Z,98784.41
2023-03-26T13:29:57.672Z,98781.70
2023-03-26T13:32:37.195Z,98777.84
2023-03-26T13:35:19.895Z,98775.91
2023-03-26T13:37:55.583Z,98779.59
2023-03-26T13:40:32.556Z,98779.21
2023-03-26T13:43:16.472Z,98777.77
2023-03-26T13:45:55.740Z,98775.30
2023-03-26T13:48:29.457Z,98774.81
2023-03-26T13:51:06.534Z,98775.11
2023-03-26T13:53:45.084Z,98770.33
2023-03-26T13:56:18.252Z,98767.98
2023-03-26T13:58:53.497Z,98767.63
2023-03-26T14:01:34.663Z,98774.73
2023-03-26T14:04:10.997Z,98768.73
2023-03-26T14:06:54.144Z,98768.19
2023-03-26T14:09:29.145Z,98770.25
2023-03-26T14:12:21.421Z,98765.79
2023-03-26T14:14:57.102Z,98762.44
2023-03-26T14:17:31.187Z,98763.89
2023-03-26T14:20:40.080Z,98760.93
2023-03-26T14:23:35.789Z,98758.59
2023-03-26T14:26:21.700Z,98757.83
2023-03-26T14:29:23.746Z,98757.52
2023-03-26T14:32:05.444Z,98758.26
2023-03-26T14:34:59.185Z,98762.66
2023-03-26T14:38:05.158Z,98755.92
2023-03-26T14:40:56.750Z,98759.92
2023-03-26T14:43:50.446Z,98760.09
2023-03-26T14:46:36.278Z,98760.64
2023-03-26T14:49:38.592Z,98764.37
2023-03-26T14:52:22.074Z,98767.42
2023-03-26T14:54:58.721Z,98765.98
2023-03-26T14:58:15.203Z,98762.64
2023-03-26T15:01:24.603Z,98762.36
2023-03-26T15:04:28.388Z,98760.73
2023-03-26T15:07:33.613Z,98758.30
2023-03-26T15:10:46.992Z,98764.84
2023-03-26T15:13:40.370Z,98763.39
2023-03-26T15:16:39.356Z,98760.26
2023-03-26T15:19:47.910Z,98756.92
2023-03-26T15:23:02.686Z,98757.89
2023-03-26T15:26:12.715Z,98760.68
2023-03-26T15:29:08.103Z,98759.21
2023-03-26T15:32:07.904Z,98757.80
2023-03-26T15:35:12.044Z,98757.98
2023-03-26T15:38:01.549Z,98753.41
2023-03-26T15:40:47.700Z,98754.58
2023-03-26T15:43:20.116Z,98758.60
2023-03-26T15:45:58.515Z,98754.20
2023-03-26T15:48:47.301Z,98754.65
2023-03-26T15:51:46.475Z,98757.18
2023-03-26T15:54:29.139Z,98757.98
2023-03-26T15:57:08.473Z,98758.98
2023-03-26T15:59:49.723Z,98759.23
2023-03-26T16:02:31.063Z,98758.00
2023-03-26T16:05:20.887Z,98759.70
2023-03-26T16:08:04.417Z,98759.71
2023-03-26T16:10:44.914Z,98764.23
2023-03-26T16:13:34.456Z,98761.20
2023-03-26T16:16:22.698Z,98762.28
2023-03-26T16:19:39.100Z,98763.48
2023-03-26T16:22:15.010Z,98771.11
2023-03-26T16:25:26.771Z,98769.59
2023-03-26T16:28:34.478Z,98770.40
2023-03-26T16:31:37.993Z,98768.26
2023-03-26T16:34:41.578Z,98765.80
2023-03-26T16:37:36.834Z,98772.20
2023-03-26T16:40:50.815Z,98772.73
2023-03-26T16:43:52.030Z,98774.61
2023-03-26T16:46:33.441Z,98776.23
2023-03-26T16:49:17.343Z,98776.41
2023-03-26T16:52:13.323Z,98775.92
2023-03-26T16:54:51.450Z,98779.73
2023-03-26T16:57:39.896Z,98780.08
2023-03-26T17:00:40.950Z,98779.33
2023-03-26T17:03:28.001Z,98783.69
2023-03-26T17:06:27.950Z,98785.83
2023-03-26T17:09:18.024Z,98786.64
2023-03-26T17:12:02.665Z,98791.09
2023-03-26T17:14:49.394Z,98789.52
2023-03-26T17:17:33.082Z,98790.17
2023-03-26T17:20:12.446Z,98790.19
2023-03-26T17:22:48.066Z,98794.34
2023-03-26T17:25:32.564Z,98803.23
2023-03-26T17:28:24.391Z,98802.53
2023-03-26T17:31:03.633Z,98803.35
2023-03-26T17:33:37.044Z,98804.39
2023-03-26T17:36:44.578Z,98809.02
2023-03-26T17:40:13.004Z,98806.34
2023-03-26T17:43:05.790Z,98807.64
2023-03-26T17:45:44.173Z,98806.02
2023-03-26T17:48:48.735Z,98803.28
2023-03-26T17:51:42.775Z,98806.41
2023-03-26T17:54:22.207Z,98811.31
2023-03-26T17:56:59.226Z,98809.40
2023-03-26T17:59:43.263Z,98810.57
2023-03-26T18:02:20.373Z,98809.67
2023-03-26T18:05:09.191Z,98814.86
2023-03-26T18:08:21.843Z,98808.90
2023-03-26T18:11:08.680Z,98813.77
2023-03-26T18:14:07.286Z,98814.22
2023-03-26T18:16:44.485Z,98816.16
2023-03-26T18:19:23.445Z,98817.29
2023-03-26T18:21:58.296Z,98814.42
2023-03-26T18:24:35.173Z,98813.83
2023-03-26T18:27:13.789Z,98812.16
2023-03-26T18:29:48.294Z,98809.41
2023-03-26T18:32:28.240Z,98804.30
2023-03-26T18:35:02.447Z,98801.66
2023-03-26T18:37:39.331Z,98797.98
2023-03-26T18:40:16.975Z,98790.54
2023-03-26T18:42:56.681Z,98789.29
2023-03-26T18:45:32.356Z,98796.41
2023-03-26T18:48:10.421Z,98796.02
2023-03-26T18:50:43.291Z,98797.50
2023-03-26T18:53:21.320Z,98794.39
2023-03-26T18:55:54.754Z,98797.80
2023-03-26T18:58:35.333Z,98792.46
2023-03-26T19:01:20.077Z,98791.92
2023-03-26T19:03:58.473Z,98790.98
2023-03-26T19:06:36.217Z,98792.23
2023-03-26T19:09:28.629Z,98792.15
2023-03-26T19:12:08.968Z,98788.02
2023-03-26T19:14:57.314Z,98783.02
2023-03-26T19:17:32.655Z,98780.23
2023-03-26T19:20:07.901Z,98782.64
2023-03-26T19:22:43.716Z,98775.20
2023-03-26T19:25:23.839Z,98774.06
2023-03-26T19:27:56.087Z,98773.65
2023-03-26T19:30:30.886Z,98772.11
2023-03-26T19:33:19.420Z,98773.11
2023-03-26T19:36:03.627Z,98766.11
2023-03-26T19:38:46.044Z,98760.59
2023-03-26T19:41:23.084Z,98752.78
2023-03-26T19:44:01.074Z,98757.02
2023-03-26T19:46:53.887Z,98753.45
2023-03-26T19:49:33.561Z,98754.15
2023-03-26T19:52:38.635Z,98751.67
2023-03-26T19:55:20.009Z,98757.48
2023-03-26T19:57:54.100Z,98756.61
2023-03-26T20:00:27.405Z,98758.02
2023-03-26T20:02:59.293Z,98756.12
2023-03-26T20:05:35.856Z,98752.48
2023-03-26T20:08:15.502Z,98750.77
2023-03-26T20:10:46.513Z,98752.28
2023-03-26T20:13:20.732Z,98748.58
2023-03-26T20:16:05.619Z,98744.80
2023-03-26T20:18:40.530Z,98742.49
2023-03-26T20:21:13.379Z,98742.06
2023-03-26T20:23:45.970Z,98745.91
2023-03-26T20:26:18.785Z,98738.69
2023-03-26T20:28:53.533Z,98741.30
2023-03-26T20:31:26.935Z,98737.60
2023-03-26T20:33:59.121Z,98736.64
2023-03-26T20:36:36.892Z,98735.27
2023-03-26T20:39:07.518Z,98738.16
2023-03-26T20:41:45.016Z,98740.49
2023-03-26T20:44:17.844Z,98740.83
2023-03-26T20:46:50.649Z,98739.08
2023-03-26T20:49:22.404Z,98738.90
2023-03-26T20:51:53.090Z,98743.20
2023-03-26T20:54:23.926Z,98742.60
2023-03-26T20:56:54.766Z,98741.18
2023-03-26T20:59:27.268Z,98743.51
2023-03-26T21:01:58.778Z,98738.66
2023-03-26T21:04:29.177Z,98736.41
2023-03-26T21:07:07.270Z,98737.64
2023-03-26T21:09:46.418Z,98737.79
2023-03-26T21:12:23.585Z,98737.08
2023-03-26T21:14:55.756Z,98739.51
2023-03-26T21:17:26.695Z,98732.93
2023-03-26T21:20:00.166Z,98735.35
2023-03-26T21:22:36.364Z,98732.80
2023-03-26T21:25:16.839Z,98726.84
2023-03-26T21:27:55.826Z,98728.83
2023-03-26T21:30:25.821Z,98719.46
2023-03-26T21:32:54.983Z,98724.98
2023-03-26T21:35:25.417Z,98725.20
2023-03-26T21:37:57.284Z,98721.17
2023-03-26T21:40:27.876Z,98720.96
2023-03-26T21:42:58.249Z,98723.95
2023-03-26T21:45:28.897Z,98722.53
2023-03-26T21:47:58.781Z,98721.20
2023-03-26T21:50:28.879Z,98722.94
2023-03-26T21:52:59.206Z,98722.53
2023-03-26T21:55:35.045Z,98725.50
2023-03-26T21:58:21.982Z,98720.16
2023-03-26T22:01:05.991Z,98717.98
2023-03-26T22:03:47.619Z,98715.10
2023-03-26T22:06:22.067Z,98721.40
2023-03-26T22:08:51.732Z,98715.10
2023-03-26T22:11:20.579Z,98711.32
2023-03-26T22:13:49.535Z,98711.29
2023-03-26T22:16:18.428Z,98714.79
2023-03-26T22:18:47.338Z,98714.23
2023-03-26T22:21:16.141Z,98716.77
2023-03-26T22:23:52.583Z,98710.60
2023-03-26T22:26:22.814Z,98714.00
2023-03-26T22:28:52.760Z,98713.81
2023-03-26T22:31:24.355Z,98712.73
2023-03-26T22:33:53.857Z,98706.43
2023-03-26T22:36:24.796Z,98703.54
2023-03-26T22:38:54.797Z,98691.63
2023-03-26T22:41:24.602Z,98693.10
2023-03-26T22:43:54.912Z,98692.98
2023-03-26T22:46:24.769Z,98688.74
2023-03-26T22:48:54.505Z,98691.55
2023-03-26T22:51:23.380Z,98693.89
2023-03-26T22:53:52.179Z,98696.94
2023-03-26T22:56:21.318Z,98697.03
2023-03-26T22:58:50.459Z,98695.08
2023-03-26T23:01:21.377Z,98691.69
2023-03-26T23:03:50.910Z,98693.25
2023-03-26T23:06:20.830Z,98696.90
2023-03-26T23:08:49.631Z,98694.27
2023-03-26T23:11:21.462Z,98701.30
2023-03-26T23:13:50.767Z,98699.11
2023-03-26T23:16:20.951Z,98699.89
2023-03-26T23:18:49.832Z,98701.10
2023-03-26T23:21:20.765Z,98700.04
2023-03-26T23:23:51.237Z,98697.96
2023-03-26T23:26:19.918Z,98700.50
2023-03-26T23:28:50.832Z,98699.44
2023-03-26T23:31:19.847Z,98697.33
2023-03-26T23:33:49.787Z,98695.27
2023-03-26T23:36:20.331Z,98689.91
2023-03-26T23:38:50.394Z,98684.89
2023-03-26T23:41:21.017Z,98690.55
2023-03-26T23:43:53.694Z,98686.61
2023-03-26T23:46:25.180Z,98687.21
2023-03-26T23:48:54.728Z,98687.73
2023-03-26T23:51:23.655Z,98689.18
2023-03-26T23:53:53.023Z,98691.27
2023-03-26T23:56:22.207Z,98689.58
2023-03-26T23:58:51.369Z,98688.87
